createdAt,value
2019-01-15T00:03:37.220Z,99544.28
2019-01-15T00:07:44.003Z,99554.79
2019-01-15T00:11:48.221Z,99548.38
2019-01-15T00:15:52.599Z,99548.02
2019-01-15T00:19:56.880Z,99552.03
2019-01-15T00:24:01.235Z,99548.72
2019-01-15T00:28:05.767Z,99552.37
2019-01-15T00:32:09.967Z,99558.91
2019-01-15T00:36:14.168Z,99549.51
2019-01-15T00:40:18.873Z,99562.92
2019-01-15T00:44:23.227Z,99560.88
2019-01-15T00:48:27.540Z,99564.76
2019-01-15T00:52:31.891Z,99570.88
2019-01-15T00:56:36.153Z,99577.48
2019-01-15T01:00:40.482Z,99579.23
2019-01-15T01:04:44.759Z,99584.41
2019-01-15T01:08:49.036Z,99588.78
2019-01-15T01:12:53.301Z,99587.61
2019-01-15T01:16:57.521Z,99594.12
2019-01-15T01:21:01.658Z,99595.11
2019-01-15T01:25:06.672Z,99606.09
2019-01-15T01:29:10.842Z,99598.44
2019-01-15T01:33:14.945Z,99603.31
2019-01-15T01:37:19.149Z,99615.50
2019-01-15T01:41:23.292Z,99609.56
2019-01-15T01:45:27.738Z,99607.12
2019-01-15T01:49:31.846Z,99610.77
2019-01-15T01:53:35.999Z,99614.77
2019-01-15T01:57:40.144Z,99611.81
2019-01-15T02:01:44.318Z,99608.16
2019-01-15T02:05:48.435Z,99603.09
2019-01-15T02:09:52.623Z,99615.70
2019-01-15T02:13:56.774Z,99614.97
2019-01-15T02:18:08.079Z,99606.38
2019-01-15T02:22:12.365Z,99598.67
2019-01-15T02:26:16.966Z,99609.05
2019-01-15T02:30:26.317Z,99612.19
2019-01-15T02:34:30.471Z,99611.40
2019-01-15T02:38:34.936Z,99617.12
2019-01-15T02:42:46.440Z,99624.18
2019-01-15T02:46:45.025Z,99609.84
2019-01-15T02:50:49.171Z,99613.30
2019-01-15T02:54:53.284Z,99612.81
2019-01-15T02:58:57.710Z,99606.33
2019-01-15T03:03:01.860Z,99614.59
2019-01-15T03:07:05.978Z,99599.72
2019-01-15T03:11:10.096Z,99607.98
2019-01-15T03:15:14.276Z,99598.97
2019-01-15T03:19:18.384Z,99609.77
2019-01-15T03:23:22.549Z,99596.73
2019-01-15T03:27:26.663Z,99592.42
2019-01-15T03:31:30.849Z,99599.39
2019-01-15T03:35:34.946Z,99600.69
2019-01-15T03:39:39.266Z,99582.61
2019-01-15T03:43:43.426Z,99601.25
2019-01-15T03:47:47.580Z,99609.72
2019-01-15T03:51:51.746Z,99606.36
2019-01-15T03:55:56.000Z,99607.23
2019-01-15T04:00:00.275Z,99614.29
2019-01-15T04:04:04.696Z,99590.22
2019-01-15T04:08:08.862Z,99609.77
2019-01-15T04:12:13.008Z,99602.47
2019-01-15T04:16:17.165Z,99595.98
2019-01-15T04:20:21.326Z,99618.05
2019-01-15T04:24:25.478Z,99601.65
2019-01-15T04:28:29.698Z,99598.20
2019-01-15T04:32:33.905Z,99592.20
2019-01-15T04:36:38.335Z,99588.75
2019-01-15T04:40:42.499Z,99597.89
2019-01-15T04:44:46.628Z,99613.52
2019-01-15T04:48:50.888Z,99601.95
2019-01-15T04:53:00.044Z,99594.22
2019-01-15T04:57:04.991Z,99586.48
2019-01-15T05:01:09.479Z,99591.75
2019-01-15T05:05:15.464Z,99587.91
2019-01-15T05:09:19.613Z,99585.48
2019-01-15T05:13:27.577Z,99586.78
2019-01-15T05:17:30.514Z,99591.92
2019-01-15T05:21:34.959Z,99591.10
2019-01-15T05:25:39.092Z,99613.94
2019-01-15T05:29:43.203Z,99616.91
2019-01-15T05:33:47.400Z,99616.71
2019-01-15T05:37:51.553Z,99619.81
2019-01-15T05:41:55.693Z,99628.95
2019-01-15T05:45:59.828Z,99622.20
2019-01-15T05:50:04.570Z,99633.05
2019-01-15T05:54:08.718Z,99630.98
2019-01-15T05:58:19.004Z,99618.16
2019-01-15T06:02:23.157Z,99622.51
2019-01-15T06:06:27.312Z,99618.61
2019-01-15T06:10:31.459Z,99617.42
2019-01-15T06:14:35.634Z,99625.69
2019-01-15T06:18:39.763Z,99643.56
2019-01-15T06:22:43.923Z,99643.25
2019-01-15T06:26:48.079Z,99660.58
2019-01-15T06:30:52.237Z,99653.00
2019-01-15T06:34:56.432Z,99661.78
2019-01-15T06:39:00.548Z,99681.37
2019-01-15T06:43:04.709Z,99675.86
2019-01-15T06:47:09.058Z,99688.06
2019-01-15T06:51:13.204Z,99690.39
2019-01-15T06:55:18.473Z,99711.23
2019-01-15T07:03:37.266Z,99714.77
2019-01-15T07:07:41.565Z,99719.26
2019-01-15T07:11:45.885Z,99728.43
2019-01-15T07:15:52.352Z,99742.39
2019-01-15T07:19:56.777Z,99739.87
2019-01-15T07:24:01.238Z,99760.34
2019-01-15T07:28:05.985Z,99770.91
2019-01-15T07:32:10.272Z,99776.22
2019-01-15T07:36:14.633Z,99769.35
2019-01-15T07:40:18.928Z,99788.59
2019-01-15T07:44:23.447Z,99795.89
2019-01-15T07:48:27.640Z,99806.79
2019-01-15T07:52:31.992Z,99806.05
2019-01-15T07:56:36.156Z,99824.30
2019-01-15T08:00:40.569Z,99814.39
2019-01-15T08:04:44.873Z,99833.52
2019-01-15T08:08:49.256Z,99840.52
2019-01-15T08:12:54.027Z,99850.11
2019-01-15T08:16:58.433Z,99844.65
2019-01-15T08:21:02.820Z,99858.02
2019-01-15T08:25:26.167Z,99855.48
2019-01-15T08:29:30.855Z,99861.19
2019-01-15T08:33:35.202Z,99869.41
2019-01-15T08:37:39.581Z,99868.22
2019-01-15T08:41:43.915Z,99862.11
2019-01-15T08:45:48.219Z,99867.91
2019-01-15T08:49:52.497Z,99863.64
2019-01-15T08:53:57.258Z,99865.50
2019-01-15T08:58:01.491Z,99861.28
2019-01-15T09:02:05.778Z,99869.98
2019-01-15T09:06:10.043Z,99879.17
2019-01-15T09:10:15.187Z,99877.53
2019-01-15T09:24:07.288Z,99874.19
2019-01-15T09:28:30.674Z,99878.14
2019-01-15T09:32:34.945Z,99874.85
2019-01-15T09:36:39.304Z,99868.45
2019-01-15T09:41:02.664Z,99878.59
2019-01-15T09:45:26.043Z,99866.45
2019-01-15T09:49:30.389Z,99874.42
2019-01-15T09:53:34.715Z,99864.94
2019-01-15T09:57:39.024Z,99866.77
2019-01-15T10:02:02.394Z,99874.60
2019-01-15T10:06:06.987Z,99865.49
2019-01-15T10:10:11.572Z,99860.39
2019-01-15T10:14:41.226Z,99860.44
2019-01-15T10:18:42.775Z,99857.07
2019-01-15T10:22:47.454Z,99845.91
2019-01-15T10:27:11.128Z,99851.88
2019-01-15T10:31:59.710Z,99848.45
2019-01-15T10:36:05.325Z,99842.38
2019-01-15T10:40:09.750Z,99843.67
2019-01-15T10:44:14.058Z,99834.19
2019-01-15T10:48:18.386Z,99831.58
2019-01-15T10:52:22.670Z,99821.22
2019-01-15T10:56:27.040Z,99815.20
2019-01-15T11:00:50.380Z,99809.72
2019-01-15T11:04:54.698Z,99807.06
2019-01-15T11:09:18.095Z,99805.09
2019-01-15T11:13:23.973Z,99799.40
2019-01-15T11:17:47.365Z,99781.07
2019-01-15T11:21:51.604Z,99780.79
2019-01-15T11:26:15.017Z,99771.77
2019-01-15T11:30:19.384Z,99767.04
2019-01-15T11:34:42.747Z,99778.83
2019-01-15T11:38:47.187Z,99777.17
2019-01-15T11:42:51.857Z,99777.52
2019-01-15T11:46:56.477Z,99774.09
2019-01-15T11:51:01.587Z,99774.19
2019-01-15T11:55:25.636Z,99779.80
2019-01-15T11:59:30.921Z,99773.85
2019-01-15T12:04:03.151Z,99771.63
2019-01-15T12:08:26.381Z,99763.39
2019-01-15T12:17:32.119Z,99757.80
2019-01-15T12:21:55.571Z,99753.89
2019-01-15T12:26:31.055Z,99750.91
2019-01-15T12:31:06.397Z,99734.02
2019-01-15T12:35:35.950Z,99733.19
2019-01-15T12:40:11.224Z,99732.38
2019-01-15T12:44:41.502Z,99738.02
2019-01-15T12:49:08.190Z,99721.91
2019-01-15T12:57:38.723Z,99711.05
2019-01-15T13:02:14.305Z,99719.34
2019-01-15T13:06:49.651Z,99712.44
2019-01-15T13:16:06.510Z,99724.74
2019-01-15T13:20:43.316Z,99718.72
2019-01-15T13:25:40.886Z,99718.31
2019-01-15T13:30:00.741Z,99725.90
2019-01-15T13:34:50.710Z,99722.03
2019-01-15T13:39:26.073Z,99714.31
2019-01-15T13:43:48.094Z,99694.89
2019-01-15T13:48:11.104Z,99711.06
2019-01-15T13:52:33.083Z,99700.29
2019-01-15T13:57:04.164Z,99703.90
2019-01-15T14:01:31.871Z,99697.42
2019-01-15T14:05:53.844Z,99693.55
2019-01-15T14:10:51.170Z,99698.42
2019-01-15T14:15:17.472Z,99696.69
2019-01-15T14:19:58.895Z,99697.20
2019-01-15T14:24:32.075Z,99718.98
2019-01-15T14:28:45.124Z,99720.73
2019-01-15T14:33:33.307Z,99718.11
2019-01-15T14:37:55.591Z,99726.33
2019-01-15T14:42:23.563Z,99729.45
2019-01-15T14:46:47.260Z,99722.89
2019-01-15T14:51:14.147Z,99724.58
2019-01-15T14:55:46.036Z,99719.77
2019-01-15T15:00:18.121Z,99714.59
2019-01-15T15:05:09.598Z,99716.33
2019-01-15T15:09:34.730Z,99714.20
2019-01-15T15:14:11.197Z,99698.20
2019-01-15T15:18:34.789Z,99700.38
2019-01-15T15:22:59.731Z,99696.86
2019-01-15T15:27:42.147Z,99682.56
2019-01-15T15:32:17.854Z,99680.78
2019-01-15T15:36:43.447Z,99694.65
2019-01-15T15:45:44.246Z,99690.30
2019-01-15T15:54:37.683Z,99685.52
2019-01-15T15:58:51.685Z,99690.38
2019-01-15T16:03:13.300Z,99692.47
2019-01-15T16:07:39.521Z,99687.77
2019-01-15T16:11:54.952Z,99679.17
2019-01-15T16:16:19.023Z,99689.73
2019-01-15T16:20:47.945Z,99682.90
2019-01-15T16:25:06.566Z,99686.81
2019-01-15T16:29:29.814Z,99691.67
2019-01-15T16:34:24.461Z,99674.33
2019-01-15T16:38:48.680Z,99666.59
2019-01-15T16:43:29.057Z,99676.16
2019-01-15T16:47:39.475Z,99670.11
2019-01-15T16:52:07.409Z,99665.41
2019-01-15T16:56:37.922Z,99656.75
2019-01-15T17:01:00.182Z,99675.09
2019-01-15T17:05:32.348Z,99675.92
2019-01-15T17:10:20.388Z,99676.83
2019-01-15T17:14:44.661Z,99682.05
2019-01-15T17:19:06.471Z,99676.44
2019-01-15T17:23:28.234Z,99687.27
2019-01-15T17:28:10.592Z,99676.83
2019-01-15T17:32:32.441Z,99672.52
2019-01-15T17:36:54.451Z,99683.44
2019-01-15T17:41:16.516Z,99675.64
2019-01-15T17:45:32.075Z,99663.95
2019-01-15T17:49:55.551Z,99672.17
2019-01-15T17:54:18.753Z,99654.81
2019-01-15T17:58:41.948Z,99649.59
2019-01-15T18:03:11.687Z,99657.47
2019-01-15T18:07:33.720Z,99654.02
2019-01-15T18:12:02.680Z,99669.33
2019-01-15T18:16:26.319Z,99678.34
2019-01-15T18:20:48.694Z,99673.59
2019-01-15T18:25:26.150Z,99656.16
2019-01-15T18:29:52.209Z,99664.54
2019-01-15T18:34:15.521Z,99658.84
2019-01-15T18:38:50.891Z,99667.98
2019-01-15T18:43:24.427Z,99659.28
2019-01-15T18:47:51.624Z,99655.92
2019-01-15T18:52:27.791Z,99645.04
2019-01-15T18:57:09.655Z,99648.95
2019-01-15T19:01:24.183Z,99658.09
2019-01-15T19:06:02.391Z,99664.22
2019-01-15T19:10:24.690Z,99643.73
2019-01-15T19:14:49.000Z,99650.73
2019-01-15T19:19:11.860Z,99659.44
2019-01-15T19:23:41.069Z,99656.86
2019-01-15T19:28:03.127Z,99654.69
2019-01-15T19:32:36.697Z,99656.42
2019-01-15T19:37:03.299Z,99651.56
2019-01-15T19:41:17.191Z,99670.98
2019-01-15T19:45:52.816Z,99664.70
2019-01-15T19:50:15.947Z,99662.92
2019-01-15T19:54:57.343Z,99660.23
2019-01-15T19:59:29.478Z,99662.36
2019-01-15T20:03:46.300Z,99667.50
2019-01-15T20:08:09.596Z,99670.86
2019-01-15T20:12:31.424Z,99672.11
2019-01-15T20:16:55.128Z,99669.03
2019-01-15T20:21:28.896Z,99660.30
2019-01-15T20:26:01.253Z,99667.61
2019-01-15T20:30:30.038Z,99672.34
2019-01-15T20:34:53.299Z,99667.09
2019-01-15T20:39:25.828Z,99649.30
2019-01-15T20:44:20.246Z,99651.01
2019-01-15T20:48:49.262Z,99672.73
2019-01-15T20:53:05.259Z,99653.17
2019-01-15T20:57:32.344Z,99646.70
2019-01-15T21:01:54.284Z,99639.35
2019-01-15T21:06:29.405Z,99622.92
2019-01-15T21:10:56.168Z,99641.30
2019-01-15T21:15:37.223Z,99646.62
2019-01-15T21:20:03.334Z,99658.89
2019-01-15T21:24:47.567Z,99647.62
2019-01-15T21:29:37.764Z,99643.42
2019-01-15T21:34:15.321Z,99662.64
2019-01-15T21:43:28.313Z,99653.34
2019-01-15T21:47:53.044Z,99661.29
2019-01-15T21:52:30.003Z,99652.63
2019-01-15T21:57:00.447Z,99656.66
2019-01-15T22:01:41.498Z,99677.14
2019-01-15T22:06:16.848Z,99672.87
2019-01-15T22:10:57.632Z,99676.42
2019-01-15T22:15:31.899Z,99669.97
2019-01-15T22:25:00.423Z,99684.88
2019-01-15T22:29:27.663Z,99674.03
2019-01-15T22:34:00.105Z,99670.12
2019-01-15T22:38:23.662Z,99674.44
2019-01-15T22:43:22.740Z,99657.02
2019-01-15T22:48:01.023Z,99668.41
2019-01-15T22:52:38.874Z,99657.50
2019-01-15T22:57:06.506Z,99654.89
2019-01-15T23:06:54.531Z,99647.85
2019-01-15T23:11:28.117Z,99651.37
2019-01-15T23:15:47.051Z,99636.17
2019-01-15T23:20:12.187Z,99651.33
2019-01-15T23:24:48.299Z,99647.45
2019-01-15T23:34:28.009Z,99648.69
2019-01-15T23:38:54.292Z,99624.75
2019-01-15T23:43:16.293Z,99636.43
2019-01-15T23:47:38.281Z,99639.44
2019-01-15T23:52:19.280Z,99641.58
2019-01-15T23:56:45.427Z,99644.19
